Time;durP1;ratioP1;P1;durP2;ratioP2;P2;SDS_P1;SDS_P2;PMS_P1;PMS_P2;Temp;Humidity;BMP_temperature;BMP_pressure;BME280_temperature;BME280_humidity;BME280_pressure;Samples;Min_cycle;Max_cycle;Signal;HPM_P1;HPM_P2
2023/01/25 00:01:03;;;;;;;11.93;8.83;;;;;;;2.97;nan;103791.91;6201525;28;20241;-70
2023/01/25 00:04:25;;;;;;;14.33;8.70;;;;;;;2.87;nan;103785.81;6209077;28;20234;-70
2023/01/25 00:07:47;;;;;;;15.67;9.13;;;;;;;2.80;nan;103785.88;6207124;28;20226;-70
2023/01/25 00:11:08;;;;;;;10.60;7.53;;;;;;;2.78;nan;103780.56;6204573;28;20233;-70
2023/01/25 00:14:29;;;;;;;13.23;8.33;;;;;;;2.93;nan;103775.09;6205031;28;21055;-71
2023/01/25 00:17:49;;;;;;;12.97;8.03;;;;;;;2.90;nan;103766.25;6203352;28;20548;-70
2023/01/25 00:21:14;;;;;;;15.57;11.03;;;;;;;2.64;nan;103769.16;6203205;28;20248;-70
2023/01/25 00:24:36;;;;;;;12.07;8.87;;;;;;;3.04;nan;103766.97;6206258;28;20316;-70
2023/01/25 00:27:57;;;;;;;11.17;7.33;;;;;;;2.32;nan;103758.81;6205128;28;20226;-70
2023/01/25 00:31:26;;;;;;;14.17;7.67;;;;;;;2.02;nan;103769.69;6204447;28;20578;-71
2023/01/25 00:34:48;;;;;;;8.30;6.53;;;;;;;2.16;nan;103770.47;6212659;28;20752;-70
2023/01/25 00:38:26;;;;;;;12.17;8.17;;;;;;;2.31;nan;103766.81;6217248;28;20950;-71
2023/01/25 00:41:48;;;;;;;14.47;9.03;;;;;;;2.39;nan;103760.53;6211566;28;20331;-70
2023/01/25 00:45:11;;;;;;;12.67;8.30;;;;;;;2.55;nan;103757.72;6211407;28;20695;-71
2023/01/25 00:48:32;;;;;;;10.70;6.83;;;;;;;2.88;nan;103754.72;6207666;28;20232;-71
2023/01/25 00:51:55;;;;;;;11.13;7.23;;;;;;;2.46;nan;103744.50;6204685;28;20237;-70
2023/01/25 00:55:16;;;;;;;12.07;8.30;;;;;;;2.55;nan;103742.63;6222509;28;20221;-70
2023/01/25 00:58:38;;;;;;;15.50;10.60;;;;;;;2.98;nan;103745.75;6207323;28;20225;-70
2023/01/25 01:02:03;;;;;;;12.80;8.30;;;;;;;2.71;nan;103735.38;6204511;28;20224;-70
2023/01/25 01:05:26;;;;;;;13.93;9.23;;;;;;;1.97;nan;103738.69;6205928;28;20225;-70
2023/01/25 01:08:47;;;;;;;13.03;8.70;;;;;;;1.83;nan;103730.81;6211913;28;20535;-69
2023/01/25 01:12:08;;;;;;;13.17;8.03;;;;;;;1.57;nan;103735.41;6193935;28;20225;-71
2023/01/25 01:15:31;;;;;;;11.10;7.70;;;;;;;1.80;nan;103727.28;6193972;28;20237;-72
2023/01/25 01:18:52;;;;;;;12.37;8.67;;;;;;;1.66;nan;103739.78;6216742;28;20237;-70
2023/01/25 01:22:13;;;;;;;13.27;8.97;;;;;;;2.11;nan;103720.84;6199283;28;20233;-71
2023/01/25 01:25:34;;;;;;;10.07;6.60;;;;;;;2.39;nan;103730.38;6202960;28;20564;-71
2023/01/25 01:28:55;;;;;;;9.10;6.90;;;;;;;2.60;nan;103721.28;6197093;28;20232;-69
2023/01/25 01:32:17;;;;;;;10.30;6.37;;;;;;;2.72;nan;103711.38;6199650;28;20241;-71
2023/01/25 01:35:38;;;;;;;11.60;7.90;;;;;;;2.44;nan;103718.75;6196854;28;20241;-71
2023/01/25 01:38:59;;;;;;;10.10;7.40;;;;;;;2.47;nan;103722.28;6201295;28;20228;-70
2023/01/25 01:42:20;;;;;;;9.73;7.20;;;;;;;2.33;nan;103723.31;6209206;28;20261;-71
2023/01/25 01:45:54;;;;;;;8.93;6.90;;;;;;;1.49;nan;103731.91;6193437;28;20225;-72
2023/01/25 01:49:26;;;;;;;8.70;5.87;;;;;;;1.90;nan;103729.00;6211831;28;20343;-70
2023/01/25 01:52:50;;;;;;;6.23;5.07;;;;;;;1.86;nan;103722.81;6215148;28;20260;-70
2023/01/25 01:56:16;;;;;;;8.50;5.60;;;;;;;1.92;nan;103717.44;6202695;28;20321;-70
2023/01/25 01:59:44;;;;;;;9.00;5.87;;;;;;;1.82;nan;103718.41;6207086;28;20311;-69
2023/01/25 02:03:06;;;;;;;8.40;6.53;;;;;;;1.82;nan;103707.78;6195728;28;20237;-70
2023/01/25 02:06:34;;;;;;;11.37;7.73;;;;;;;2.05;nan;103697.84;6216131;28;20228;-70
2023/01/25 02:09:55;;;;;;;10.77;7.30;;;;;;;2.11;nan;103702.22;6211334;28;20233;-70
2023/01/25 02:13:18;;;;;;;6.97;5.70;;;;;;;1.42;nan;103700.94;6203422;28;20224;-70
2023/01/25 02:16:39;;;;;;;9.80;6.57;;;;;;;1.87;nan;103703.31;6209126;28;20221;-71
2023/01/25 02:20:06;;;;;;;9.23;6.90;;;;;;;2.00;nan;103696.13;6199851;28;20312;-71
2023/01/25 02:23:33;;;;;;;9.87;6.67;;;;;;;2.02;nan;103694.34;6191489;28;20233;-70
2023/01/25 02:26:58;;;;;;;8.50;6.93;;;;;;;2.10;nan;103695.16;6192238;28;20567;-70
2023/01/25 02:30:19;;;;;;;9.03;6.43;;;;;;;2.06;nan;103696.06;6199442;28;20361;-70
2023/01/25 02:33:40;;;;;;;7.73;6.37;;;;;;;1.75;nan;103697.19;6213374;28;20558;-70
2023/01/25 02:37:02;;;;;;;10.33;6.67;;;;;;;1.90;nan;103684.66;6201627;28;20256;-70
2023/01/25 02:40:23;;;;;;;7.23;5.53;;;;;;;1.83;nan;103696.25;6205793;28;20351;-71
2023/01/25 02:43:45;;;;;;;8.33;5.73;;;;;;;1.61;nan;103673.34;6201141;28;20308;-71
2023/01/25 02:47:06;;;;;;;11.90;6.00;;;;;;;2.22;nan;103669.31;6195213;28;20237;-70
2023/01/25 02:50:27;;;;;;;9.37;6.23;;;;;;;1.69;nan;103682.16;6202767;28;20228;-70
2023/01/25 02:53:47;;;;;;;7.97;5.97;;;;;;;1.49;nan;103676.09;6202424;28;20233;-70
2023/01/25 02:57:09;;;;;;;8.33;6.17;;;;;;;1.49;nan;103673.44;6214727;28;20261;-70
2023/01/25 03:00:37;;;;;;;10.27;6.07;;;;;;;1.55;nan;103670.75;6201788;28;20232;-70
2023/01/25 03:03:58;;;;;;;10.33;8.33;;;;;;;1.82;nan;103659.00;6204857;28;20233;-70
2023/01/25 03:07:19;;;;;;;8.50;5.87;;;;;;;1.56;nan;103669.84;6206333;28;20221;-70
2023/01/25 03:10:40;;;;;;;11.77;7.07;;;;;;;1.44;nan;103664.63;6206657;28;20635;-70
2023/01/25 03:14:01;;;;;;;6.93;5.60;;;;;;;1.56;nan;103659.22;6204577;28;20646;-70
2023/01/25 03:17:24;;;;;;;9.93;7.10;;;;;;;1.92;nan;103650.94;6212944;28;20312;-70
2023/01/25 03:20:45;;;;;;;16.90;5.93;;;;;;;2.07;nan;103648.16;6209598;28;20241;-70
2023/01/25 03:24:08;;;;;;;11.63;7.03;;;;;;;2.43;nan;103644.25;6209521;28;20232;-70
2023/01/25 03:27:32;;;;;;;9.17;7.77;;;;;;;1.79;nan;103646.66;6194613;28;20229;-70
2023/01/25 03:31:01;;;;;;;10.63;6.60;;;;;;;1.75;nan;103628.06;6206165;28;20220;-70
2023/01/25 03:34:23;;;;;;;6.90;5.43;;;;;;;1.87;nan;103630.63;6213421;28;20241;-70
2023/01/25 03:37:44;;;;;;;13.13;8.03;;;;;;;1.41;nan;103630.97;6221806;28;20224;-70
2023/01/25 03:41:06;;;;;;;14.63;7.50;;;;;;;1.53;nan;103625.56;6209285;28;20233;-69
2023/01/25 03:44:28;;;;;;;11.13;5.90;;;;;;;1.41;nan;103619.47;6214894;28;20229;-71
2023/01/25 03:47:50;;;;;;;12.30;6.90;;;;;;;1.10;nan;103616.13;6223392;28;20229;-70
2023/01/25 03:51:13;;;;;;;15.03;8.43;;;;;;;1.48;nan;103614.09;6210068;28;20358;-69
2023/01/25 03:54:34;;;;;;;8.37;6.67;;;;;;;1.21;nan;103621.38;6203842;28;20232;-70
2023/01/25 03:57:55;;;;;;;9.10;6.40;;;;;;;1.62;nan;103619.31;6203809;28;20307;-70
2023/01/25 04:01:16;;;;;;;11.87;6.97;;;;;;;1.49;nan;103612.31;6198919;28;20423;-70
2023/01/25 04:04:37;;;;;;;10.27;6.40;;;;;;;1.50;nan;103614.94;6200492;28;20247;-70
2023/01/25 04:07:59;;;;;;;12.70;7.07;;;;;;;1.94;nan;103611.91;6206373;28;20229;-70
2023/01/25 04:11:30;;;;;;;13.03;6.87;;;;;;;2.07;nan;103599.38;6216554;28;20225;-70
2023/01/25 04:14:51;;;;;;;13.87;7.10;;;;;;;1.96;nan;103609.28;6213189;28;20598;-70
2023/01/25 04:18:16;;;;;;;11.10;6.90;;;;;;;1.99;nan;103603.91;6210089;28;20229;-70
2023/01/25 04:21:37;;;;;;;16.07;8.30;;;;;;;1.29;nan;103607.16;6200722;28;20233;-70
2023/01/25 04:25:00;;;;;;;11.03;8.50;;;;;;;1.73;nan;103600.63;6207354;28;20233;-70
2023/01/25 04:28:22;;;;;;;11.13;6.40;;;;;;;1.78;nan;103597.00;6197074;28;20237;-71
2023/01/25 04:31:43;;;;;;;14.13;9.53;;;;;;;1.23;nan;103595.69;6216961;28;20240;-71
2023/01/25 04:35:05;;;;;;;9.07;7.27;;;;;;;1.43;nan;103591.09;6213238;28;21469;-71
2023/01/25 04:38:27;;;;;;;11.57;7.80;;;;;;;1.51;nan;103594.56;6210494;28;20253;-70
2023/01/25 04:41:49;;;;;;;10.93;7.83;;;;;;;1.37;nan;103577.88;6198447;28;20229;-70
2023/01/25 04:45:11;;;;;;;11.93;8.77;;;;;;;1.66;nan;103572.31;6220675;28;20766;-71
2023/01/25 04:48:32;;;;;;;8.27;6.43;;;;;;;1.70;nan;103569.63;6222056;28;20786;-70
2023/01/25 04:51:56;;;;;;;9.37;5.20;;;;;;;1.64;nan;103577.66;6216308;28;20244;-69
2023/01/25 04:55:18;;;;;;;8.63;6.30;;;;;;;1.05;nan;103580.72;6217015;28;20709;-70
2023/01/25 04:58:40;;;;;;;13.83;7.43;;;;;;;0.80;nan;103574.69;6211724;28;20332;-71
2023/01/25 05:02:01;;;;;;;7.10;5.63;;;;;;;0.73;nan;103572.94;6205975;28;20225;-70
2023/01/25 05:05:22;;;;;;;9.47;6.97;;;;;;;1.42;nan;103568.94;6219544;28;20680;-70
2023/01/25 05:08:44;;;;;;;9.83;7.47;;;;;;;1.86;nan;103568.56;6211453;28;20316;-70
2023/01/25 05:12:10;;;;;;;6.87;4.63;;;;;;;1.85;nan;103556.19;6194633;28;20694;-70
2023/01/25 05:15:44;;;;;;;9.90;6.20;;;;;;;1.87;nan;103557.06;6216724;28;20332;-70
2023/01/25 05:19:05;;;;;;;7.13;5.30;;;;;;;1.43;nan;103562.75;6208502;28;20229;-70
2023/01/25 05:22:32;;;;;;;6.97;5.50;;;;;;;1.93;nan;103550.78;6209881;28;20245;-71
2023/01/25 05:29:35;;;;;;;7.37;6.63;;;;;;;1.24;nan;103546.97;6212034;28;20240;-70
2023/01/25 05:33:01;;;;;;;10.23;5.40;;;;;;;1.35;nan;103548.66;6195844;28;20229;-70
2023/01/25 05:36:22;;;;;;;15.17;6.10;;;;;;;1.23;nan;103538.09;6214252;28;20791;-69
2023/01/25 05:39:43;;;;;;;14.17;6.67;;;;;;;1.35;nan;103540.69;6201267;28;20244;-70
2023/01/25 05:43:03;;;;;;;7.93;6.67;;;;;;;1.26;nan;103530.13;6202362;28;20229;-70
2023/01/25 05:46:27;;;;;;;10.47;6.53;;;;;;;0.95;nan;103540.97;6212910;28;20319;-70
2023/01/25 05:49:49;;;;;;;6.40;5.80;;;;;;;0.97;nan;103532.09;6209800;28;20236;-70
2023/01/25 05:53:18;;;;;;;8.63;6.57;;;;;;;1.13;nan;103539.06;6213677;28;20229;-70
2023/01/25 05:56:39;;;;;;;8.37;7.30;;;;;;;1.36;nan;103529.16;6202919;28;20225;-70
2023/01/25 06:00:02;;;;;;;10.57;6.80;;;;;;;1.72;nan;103529.72;6200037;28;20626;-70
2023/01/25 06:03:34;;;;;;;9.87;7.57;;;;;;;1.33;nan;103523.88;6196868;28;20241;-70
2023/01/25 06:06:57;;;;;;;8.17;6.17;;;;;;;1.08;nan;103511.69;6200647;28;20603;-70
2023/01/25 06:10:18;;;;;;;10.50;7.67;;;;;;;1.01;nan;103509.06;6200942;28;20235;-70
2023/01/25 06:13:43;;;;;;;9.53;7.17;;;;;;;0.59;nan;103519.06;6216597;28;20569;-71
2023/01/25 06:17:05;;;;;;;8.57;6.97;;;;;;;0.94;nan;103512.66;6184957;28;20229;-70
2023/01/25 06:20:49;;;;;;;8.43;6.37;;;;;;;0.97;nan;103523.25;6200608;28;20232;-71
2023/01/25 06:24:11;;;;;;;10.20;7.33;;;;;;;1.14;nan;103516.94;6197876;28;20339;-70
2023/01/25 06:27:32;;;;;;;10.47;6.70;;;;;;;1.42;nan;103513.16;6206502;28;20233;-70
2023/01/25 06:30:53;;;;;;;8.17;6.07;;;;;;;1.14;nan;103513.41;6196076;28;20232;-70
2023/01/25 06:34:14;;;;;;;9.60;7.03;;;;;;;0.90;nan;103514.44;6193378;28;20591;-70
2023/01/25 06:37:35;;;;;;;10.13;6.67;;;;;;;0.76;nan;103522.50;6204157;28;20560;-70
2023/01/25 06:41:00;;;;;;;10.17;6.50;;;;;;;0.96;nan;103514.38;6206877;28;20228;-70
2023/01/25 06:44:21;;;;;;;10.97;7.67;;;;;;;0.78;nan;103519.84;6200962;28;20237;-70
2023/01/25 06:47:42;;;;;;;10.57;6.70;;;;;;;0.68;nan;103528.75;6198850;28;20264;-71
2023/01/25 06:51:05;;;;;;;8.57;6.30;;;;;;;1.38;nan;103523.81;6180939;28;20233;-70
2023/01/25 06:54:26;;;;;;;9.03;7.27;;;;;;;1.43;nan;103522.91;6175063;28;20595;-69
2023/01/25 06:57:48;;;;;;;9.30;7.07;;;;;;;1.82;nan;103523.41;6184271;28;20517;-70
2023/01/25 07:01:13;;;;;;;10.60;5.80;;;;;;;1.35;nan;103522.09;6184071;28;20236;-69
2023/01/25 07:04:34;;;;;;;10.67;8.17;;;;;;;1.53;nan;103521.91;6185738;28;20260;-70
2023/01/25 07:07:55;;;;;;;9.90;6.87;;;;;;;1.28;nan;103522.13;6198068;28;20237;-69
2023/01/25 07:11:17;;;;;;;9.35;7.35;;;;;;;1.63;nan;103512.97;6202287;28;21186;-69
2023/01/25 07:14:39;;;;;;;10.00;9.00;;;;;;;2.10;nan;103500.94;6182362;28;21811;-70
2023/01/25 07:18:00;;;;;;;9.90;7.17;;;;;;;1.54;nan;103497.09;6211981;28;20816;-70
2023/01/25 07:21:23;;;;;;;9.27;6.17;;;;;;;0.87;nan;103503.84;6206241;28;20224;-69
2023/01/25 07:24:48;;;;;;;9.30;6.47;;;;;;;1.33;nan;103491.09;6199474;28;20232;-69
2023/01/25 07:28:09;;;;;;;9.57;5.90;;;;;;;1.63;nan;103492.59;6210743;28;20233;-69
2023/01/25 07:31:31;;;;;;;9.90;7.30;;;;;;;1.61;nan;103493.47;6208638;28;20220;-68
2023/01/25 07:34:52;;;;;;;6.80;4.73;;;;;;;1.47;nan;103491.84;6196923;28;20225;-69
2023/01/25 07:38:13;;;;;;;7.57;6.83;;;;;;;0.95;nan;103482.56;6208999;28;20248;-69
2023/01/25 07:41:33;;;;;;;6.97;6.20;;;;;;;0.91;nan;103479.03;6212725;28;20614;-69
2023/01/25 07:44:55;;;;;;;7.40;5.27;;;;;;;1.26;nan;103478.75;6196846;28;20232;-68
2023/01/25 07:48:19;;;;;;;6.90;5.77;;;;;;;1.04;nan;103482.50;6204132;28;20233;-69
2023/01/25 07:51:40;;;;;;;8.47;6.43;;;;;;;1.14;nan;103484.19;6205283;28;20615;-69
2023/01/25 07:55:01;;;;;;;7.00;6.30;;;;;;;0.92;nan;103478.13;6198146;28;20319;-69
2023/01/25 07:58:22;;;;;;;8.97;7.20;;;;;;;0.93;nan;103482.56;6210568;28;21167;-69
2023/01/25 08:01:43;;;;;;;11.27;7.97;;;;;;;1.37;nan;103469.81;6203332;28;20229;-69
2023/01/25 08:05:06;;;;;;;10.37;6.70;;;;;;;0.80;nan;103460.53;6201531;28;20232;-69
2023/01/25 08:08:27;;;;;;;9.63;5.10;;;;;;;1.08;nan;103447.94;6214301;28;20233;-69
2023/01/25 08:11:49;;;;;;;8.30;5.90;;;;;;;1.64;nan;103442.06;6221549;28;20233;-69
2023/01/25 08:15:10;;;;;;;8.97;6.60;;;;;;;1.99;nan;103439.00;6209409;28;20228;-69
2023/01/25 08:18:32;;;;;;;9.13;6.43;;;;;;;1.79;nan;103451.66;6210077;28;20253;-69
2023/01/25 08:21:55;;;;;;;8.37;7.50;;;;;;;1.37;nan;103453.88;6213958;28;20229;-69
2023/01/25 08:25:16;;;;;;;10.90;7.10;;;;;;;1.47;nan;103442.25;6203909;28;20225;-69
2023/01/25 08:28:37;;;;;;;11.70;7.60;;;;;;;1.63;nan;103439.44;6208415;28;20263;-69
2023/01/25 08:31:57;;;;;;;10.40;7.37;;;;;;;1.78;nan;103436.59;6216104;28;20225;-69
2023/01/25 08:35:18;;;;;;;10.43;9.03;;;;;;;1.66;nan;103436.72;6208322;28;20263;-69
2023/01/25 08:38:41;;;;;;;10.37;5.83;;;;;;;1.77;nan;103432.19;6216450;28;20233;-68
2023/01/25 08:42:05;;;;;;;11.87;8.23;;;;;;;1.39;nan;103425.50;6219311;28;20719;-69
2023/01/25 08:45:26;;;;;;;10.47;6.83;;;;;;;1.12;nan;103415.16;6214757;28;20279;-68
2023/01/25 08:48:47;;;;;;;12.17;8.43;;;;;;;1.59;nan;103409.34;6209324;28;20225;-68
2023/01/25 08:52:08;;;;;;;19.50;10.50;;;;;;;1.48;nan;103398.81;6219129;28;20237;-67
2023/01/25 08:55:30;;;;;;;9.03;7.73;;;;;;;1.03;nan;103407.25;6213324;28;20614;-68
2023/01/25 08:58:51;;;;;;;11.30;7.53;;;;;;;1.06;nan;103393.97;6219698;28;20221;-69
2023/01/25 09:02:12;;;;;;;10.87;8.63;;;;;;;1.14;nan;103392.09;6183643;28;20241;-69
2023/01/25 09:05:33;;;;;;;11.60;8.20;;;;;;;1.22;nan;103387.59;6217160;28;20236;-69
2023/01/25 09:08:54;;;;;;;8.60;7.73;;;;;;;1.52;nan;103381.94;6213865;28;20233;-68
2023/01/25 09:12:17;;;;;;;14.37;7.93;;;;;;;1.40;nan;103389.16;6203272;28;20261;-69
2023/01/25 09:15:38;;;;;;;12.40;8.43;;;;;;;1.58;nan;103378.34;6207385;28;20240;-69
2023/01/25 09:19:01;;;;;;;12.87;9.03;;;;;;;1.81;nan;103386.94;6215318;28;20221;-70
2023/01/25 09:22:22;;;;;;;13.50;9.87;;;;;;;1.27;nan;103382.25;6210378;28;20607;-69
2023/01/25 09:25:43;;;;;;;12.90;9.40;;;;;;;0.75;nan;103390.66;6208637;28;20626;-69
2023/01/25 09:29:07;;;;;;;11.73;8.27;;;;;;;1.08;nan;103375.34;6229448;28;20221;-69
2023/01/25 09:32:28;;;;;;;12.07;10.07;;;;;;;0.89;nan;103369.31;6217359;28;20233;-69
2023/01/25 09:35:49;;;;;;;11.40;10.07;;;;;;;1.00;nan;103366.56;6216779;28;20229;-68
2023/01/25 09:39:11;;;;;;;21.50;12.17;;;;;;;1.59;nan;103367.69;6206793;28;20228;-68
2023/01/25 09:42:49;;;;;;;16.67;9.93;;;;;;;2.07;nan;103366.19;6210422;28;20228;-69
2023/01/25 09:46:20;;;;;;;15.60;9.73;;;;;;;1.84;nan;103368.28;6218353;28;20250;-69
2023/01/25 09:49:58;;;;;;;12.00;9.30;;;;;;;1.38;nan;103361.72;6207972;28;20240;-69
2023/01/25 09:53:30;;;;;;;13.27;10.03;;;;;;;1.52;nan;103359.81;6215615;28;20311;-69
2023/01/25 09:56:52;;;;;;;16.20;11.40;;;;;;;1.23;nan;103360.13;6213522;28;20224;-68
2023/01/25 10:00:20;;;;;;;13.40;9.10;;;;;;;1.36;nan;103340.50;6211902;28;20233;-68
2023/01/25 10:03:50;;;;;;;15.20;10.20;;;;;;;1.16;nan;103337.19;6215890;28;20585;-69
2023/01/25 10:07:19;;;;;;;14.10;9.20;;;;;;;1.46;nan;103342.16;6207844;28;20232;-69
2023/01/25 10:10:41;;;;;;;21.43;10.20;;;;;;;1.75;nan;103338.28;6211302;28;20311;-69
2023/01/25 10:14:09;;;;;;;17.13;11.27;;;;;;;1.34;nan;103341.41;6217488;28;20245;-68
2023/01/25 10:17:36;;;;;;;16.60;10.47;;;;;;;1.58;nan;103338.50;6208537;28;21581;-68
2023/01/25 10:21:01;;;;;;;13.13;11.10;;;;;;;1.66;nan;103331.28;6215049;28;20605;-68
2023/01/25 10:24:52;;;;;;;18.27;11.93;;;;;;;1.75;nan;103328.53;6212983;28;20225;-69
2023/01/25 10:28:26;;;;;;;14.83;10.33;;;;;;;1.47;nan;103322.66;6219629;28;20228;-68
2023/01/25 10:31:51;;;;;;;15.40;12.17;;;;;;;1.24;nan;103308.78;6213852;28;20455;-68
2023/01/25 10:35:16;;;;;;;15.60;10.70;;;;;;;1.30;nan;103308.69;6211625;28;20231;-69
2023/01/25 10:38:41;;;;;;;19.43;11.07;;;;;;;1.19;nan;103304.41;6217411;28;20233;-69
2023/01/25 10:42:06;;;;;;;17.20;10.90;;;;;;;1.32;nan;103290.06;6215511;28;20229;-69
2023/01/25 10:45:27;;;;;;;22.87;13.10;;;;;;;1.32;nan;103285.66;6212368;28;20259;-69
2023/01/25 10:48:48;;;;;;;16.27;10.43;;;;;;;1.36;nan;103279.41;6218193;28;20229;-69
2023/01/25 10:52:13;;;;;;;18.47;12.00;;;;;;;1.26;nan;103290.16;6219480;28;20229;-69
2023/01/25 10:55:35;;;;;;;19.07;12.33;;;;;;;1.50;nan;103284.56;6209609;28;20232;-69
2023/01/25 10:59:08;;;;;;;16.87;11.97;;;;;;;1.63;nan;103270.19;6210384;28;20229;-69
2023/01/25 11:02:41;;;;;;;17.87;14.77;;;;;;;2.20;nan;103257.81;6209941;28;20246;-69
2023/01/25 11:06:02;;;;;;;19.40;12.07;;;;;;;1.76;nan;103257.59;6206804;28;20633;-69
2023/01/25 11:09:37;;;;;;;21.80;12.60;;;;;;;1.95;nan;103254.66;6197636;28;20220;-69
2023/01/25 11:13:23;;;;;;;17.80;13.80;;;;;;;1.80;nan;103240.69;6218710;28;20233;-70
2023/01/25 11:16:46;;;;;;;20.90;13.53;;;;;;;1.20;nan;103227.38;6214588;28;20225;-69
2023/01/25 11:20:16;;;;;;;23.23;13.37;;;;;;;1.09;nan;103231.03;6211266;28;20228;-69
2023/01/25 11:23:38;;;;;;;18.90;12.30;;;;;;;1.04;nan;103225.78;6219449;28;20261;-69
2023/01/25 11:27:13;;;;;;;20.67;13.17;;;;;;;1.13;nan;103223.00;6216391;28;20228;-69
2023/01/25 11:30:35;;;;;;;20.23;12.50;;;;;;;1.20;nan;103200.78;6208854;28;20319;-69
2023/01/25 11:33:56;;;;;;;19.57;11.80;;;;;;;1.27;nan;103190.97;6215094;28;20224;-69
2023/01/25 11:37:42;;;;;;;23.53;12.57;;;;;;;1.40;nan;103182.81;6205893;28;20233;-69
2023/01/25 11:41:13;;;;;;;19.63;12.90;;;;;;;1.51;nan;103185.31;6215733;28;20236;-69
2023/01/25 11:44:59;;;;;;;16.20;10.77;;;;;;;1.33;nan;103180.25;6204702;28;20228;-68
2023/01/25 11:48:35;;;;;;;16.30;11.73;;;;;;;1.32;nan;103171.41;6228315;28;20858;-70
2023/01/25 11:52:08;;;;;;;16.57;11.80;;;;;;;1.53;nan;103154.28;6220465;28;20611;-70
2023/01/25 11:55:35;;;;;;;17.57;11.50;;;;;;;1.19;nan;103145.91;6215508;28;20358;-68
2023/01/25 11:59:15;;;;;;;18.23;12.53;;;;;;;2.04;nan;103141.94;6215278;28;20229;-69
2023/01/25 12:03:05;;;;;;;14.97;10.80;;;;;;;1.98;nan;103126.94;6218897;28;20237;-70
2023/01/25 12:06:37;;;;;;;16.40;10.00;;;;;;;2.12;nan;103110.75;6223083;28;20229;-69
2023/01/25 12:10:09;;;;;;;19.30;12.80;;;;;;;1.56;nan;103104.59;6213805;28;20224;-69
2023/01/25 12:13:39;;;;;;;18.40;9.97;;;;;;;1.46;nan;103110.13;6219950;28;20229;-70
2023/01/25 12:17:19;;;;;;;15.03;10.70;;;;;;;1.52;nan;103097.59;6217529;28;20228;-68
2023/01/25 12:21:03;;;;;;;16.90;11.07;;;;;;;1.16;nan;103091.97;6218226;28;20220;-69
2023/01/25 12:24:40;;;;;;;18.20;12.47;;;;;;;1.41;nan;103086.28;6209975;28;20233;-69
2023/01/25 12:28:10;;;;;;;21.07;11.47;;;;;;;1.94;nan;103068.53;6236044;28;20244;-69
2023/01/25 12:31:40;;;;;;;15.87;12.00;;;;;;;1.55;nan;103064.78;6216505;28;20327;-69
2023/01/25 12:35:18;;;;;;;15.03;9.13;;;;;;;1.84;nan;103057.19;6211990;28;20228;-69
2023/01/25 12:38:44;;;;;;;13.63;9.83;;;;;;;1.34;nan;103051.81;6220320;28;20233;-70
2023/01/25 12:42:15;;;;;;;17.43;11.47;;;;;;;1.37;nan;103041.16;6207329;28;20233;-69
2023/01/25 12:45:40;;;;;;;15.20;9.30;;;;;;;1.30;nan;103028.88;6214328;28;20251;-69
2023/01/25 12:49:17;;;;;;;12.30;9.00;;;;;;;1.50;nan;103026.78;6218619;28;20225;-68
2023/01/25 12:52:42;;;;;;;12.37;9.17;;;;;;;1.33;nan;103027.06;6217788;28;20236;-70
2023/01/25 12:56:07;;;;;;;15.47;11.60;;;;;;;1.40;nan;103022.50;6218258;28;20221;-69
2023/01/25 12:59:37;;;;;;;16.27;11.27;;;;;;;1.57;nan;103008.03;6203238;28;20232;-69
2023/01/25 13:03:17;;;;;;;15.97;10.70;;;;;;;1.95;nan;103003.81;6218882;28;20560;-69
2023/01/25 13:06:44;;;;;;;12.90;8.87;;;;;;;2.40;nan;103000.22;6216631;28;20249;-68
2023/01/25 13:10:15;;;;;;;14.10;8.80;;;;;;;1.95;nan;102995.81;6203235;28;20551;-69
2023/01/25 13:13:36;;;;;;;14.47;9.17;;;;;;;2.17;nan;102983.88;6204487;28;20330;-70
2023/01/25 13:17:20;;;;;;;15.27;9.67;;;;;;;1.93;nan;102981.69;6214091;28;20587;-70
2023/01/25 13:20:51;;;;;;;15.73;11.03;;;;;;;2.34;nan;102973.72;6214557;28;20224;-68
2023/01/25 13:24:18;;;;;;;16.20;10.57;;;;;;;2.17;nan;102973.22;6210410;28;20229;-69
2023/01/25 13:27:39;;;;;;;18.73;8.70;;;;;;;1.56;nan;102974.38;6214397;28;20256;-69
2023/01/25 13:31:00;;;;;;;16.37;10.10;;;;;;;1.51;nan;102976.25;6205989;28;20217;-70
2023/01/25 13:34:57;;;;;;;14.27;9.70;;;;;;;1.58;nan;102966.41;6205556;28;20507;-69
2023/01/25 13:38:34;;;;;;;14.50;9.23;;;;;;;1.77;nan;102961.63;6218687;28;20316;-69
2023/01/25 13:41:58;;;;;;;14.63;10.93;;;;;;;1.95;nan;102950.63;6211277;28;20229;-69
2023/01/25 13:45:21;;;;;;;15.57;9.70;;;;;;;1.63;nan;102944.13;6215418;28;20237;-69
2023/01/25 13:48:49;;;;;;;14.37;8.17;;;;;;;1.58;nan;102943.38;6214495;28;20245;-68
2023/01/25 13:52:15;;;;;;;17.37;10.53;;;;;;;1.63;nan;102945.91;6211386;28;21707;-68
2023/01/25 13:55:41;;;;;;;14.20;9.50;;;;;;;1.17;nan;102945.00;6209818;28;20220;-69
2023/01/25 13:59:02;;;;;;;14.90;11.03;;;;;;;1.26;nan;102931.53;6208968;28;20233;-68
2023/01/25 14:02:25;;;;;;;14.33;9.50;;;;;;;1.61;nan;102934.44;6205959;28;20232;-68
2023/01/25 14:05:50;;;;;;;11.50;10.13;;;;;;;1.50;nan;102931.97;6206324;28;20252;-69
2023/01/25 14:09:15;;;;;;;18.27;12.77;;;;;;;1.66;nan;102932.59;6204897;28;20233;-70
2023/01/25 14:12:39;;;;;;;15.80;10.30;;;;;;;1.39;nan;102928.66;6207910;28;20221;-69
2023/01/25 14:16:03;;;;;;;19.00;12.03;;;;;;;1.64;nan;102923.75;6212499;28;20236;-69
2023/01/25 14:19:27;;;;;;;15.33;9.23;;;;;;;1.50;nan;102920.50;6198753;28;20229;-71
2023/01/25 14:22:49;;;;;;;15.90;11.10;;;;;;;1.56;nan;102925.69;6224628;28;20232;-71
2023/01/25 14:26:20;;;;;;;15.97;10.70;;;;;;;1.85;nan;102919.81;6224733;28;20228;-70
2023/01/25 14:29:41;;;;;;;13.87;8.87;;;;;;;2.38;nan;102914.22;6202210;28;20236;-70
2023/01/25 14:33:15;;;;;;;18.57;13.33;;;;;;;1.64;nan;102913.13;6204525;28;20229;-70
2023/01/25 14:36:36;;;;;;;14.53;9.87;;;;;;;1.22;nan;102898.88;6200882;28;20221;-69
2023/01/25 14:39:57;;;;;;;17.30;11.47;;;;;;;1.72;nan;102907.66;6189110;28;20285;-69
2023/01/25 14:43:20;;;;;;;16.57;10.80;;;;;;;1.88;nan;102903.81;6201378;28;20678;-70
2023/01/25 14:46:42;;;;;;;25.27;13.70;;;;;;;2.27;nan;102898.47;6207096;28;20229;-69
2023/01/25 14:50:32;;;;;;;17.30;10.70;;;;;;;1.07;nan;102899.13;6212192;28;20232;-70
2023/01/25 14:53:58;;;;;;;18.20;13.07;;;;;;;1.21;nan;102888.28;6209008;28;20257;-68
2023/01/25 14:57:32;;;;;;;16.70;10.10;;;;;;;1.03;nan;102888.56;6209282;28;20272;-69
2023/01/25 15:00:56;;;;;;;19.53;12.27;;;;;;;0.85;nan;102889.78;6211236;28;20232;-69
2023/01/25 15:04:17;;;;;;;17.20;10.13;;;;;;;1.13;nan;102880.41;6200273;28;20233;-69
2023/01/25 15:07:43;;;;;;;27.47;13.57;;;;;;;1.25;nan;102882.00;6208261;28;20244;-69
2023/01/25 15:14:47;;;;;;;21.53;12.70;;;;;;;1.04;nan;102900.97;6203782;28;20626;-69
2023/01/25 15:18:47;;;;;;;25.77;14.67;;;;;;;1.08;nan;102890.25;6210059;28;20317;-68
2023/01/25 15:22:08;;;;;;;21.23;12.53;;;;;;;1.36;nan;102885.31;6202936;28;20610;-69
2023/01/25 15:25:29;;;;;;;18.77;10.57;;;;;;;1.47;nan;102884.22;6198567;28;20236;-69
2023/01/25 15:28:53;;;;;;;19.57;12.67;;;;;;;1.71;nan;102884.66;6207220;28;20250;-69
2023/01/25 15:32:19;;;;;;;23.60;15.43;;;;;;;1.91;nan;102867.38;6153276;28;20237;-69
2023/01/25 15:35:41;;;;;;;19.70;12.70;;;;;;;1.45;nan;102871.88;6205036;28;20224;-69
2023/01/25 15:39:02;;;;;;;18.30;12.40;;;;;;;1.52;nan;102868.19;6208955;28;20221;-69
2023/01/25 15:42:23;;;;;;;16.53;11.87;;;;;;;1.46;nan;102857.69;6200968;28;20221;-69
2023/01/25 15:45:47;;;;;;;23.10;14.30;;;;;;;1.44;nan;102857.69;6202760;28;20979;-68
2023/01/25 15:49:12;;;;;;;20.53;12.13;;;;;;;1.69;nan;102843.94;6199808;28;20281;-69
2023/01/25 15:52:35;;;;;;;24.07;14.07;;;;;;;1.35;nan;102849.03;6198116;28;20233;-70
2023/01/25 15:55:58;;;;;;;22.53;13.77;;;;;;;1.63;nan;102836.09;6205038;28;20225;-69
2023/01/25 15:59:19;;;;;;;22.17;14.80;;;;;;;0.96;nan;102832.03;6184970;28;20317;-70
2023/01/25 16:02:40;;;;;;;23.00;13.73;;;;;;;1.09;nan;102822.97;6181785;28;20345;-69
2023/01/25 16:06:02;;;;;;;21.90;11.93;;;;;;;1.24;nan;102828.00;6208625;28;20228;-69
2023/01/25 16:09:28;;;;;;;21.40;12.70;;;;;;;1.38;nan;102835.69;6194183;28;20352;-69
2023/01/25 16:12:49;;;;;;;19.03;11.47;;;;;;;1.30;nan;102835.84;6212398;28;20233;-69
2023/01/25 16:16:17;;;;;;;18.87;11.77;;;;;;;1.22;nan;102820.94;6207874;28;20743;-68
2023/01/25 16:19:38;;;;;;;22.83;11.47;;;;;;;1.37;nan;102816.22;6200620;28;20319;-69
2023/01/25 16:23:00;;;;;;;19.40;11.47;;;;;;;1.29;nan;102809.31;6208887;28;20233;-69